sensor_id;sensor_type;location;lat;lon;timestamp;pressure;altitude;pressure_sealevel;temperature
70533;BMP180;58088;51.186;17.130;2023-04-06T00:00:08;100788.80;;;1.70
70533;BMP180;58088;51.186;17.130;2023-04-06T00:02:36;100788.80;;;1.70
70533;BMP180;58088;51.186;17.130;2023-04-06T00:05:03;100790.40;;;1.70
70533;BMP180;58088;51.186;17.130;2023-04-06T00:07:29;100790.60;;;1.70
70533;BMP180;58088;51.186;17.130;2023-04-06T00:09:55;100794.40;;;1.60
70533;BMP180;58088;51.186;17.130;2023-04-06T00:12:22;100795.40;;;1.50
70533;BMP180;58088;51.186;17.130;2023-04-06T00:14:48;100791.80;;;1.50
70533;BMP180;58088;51.186;17.130;2023-04-06T00:17:14;100793.80;;;1.50
70533;BMP180;58088;51.186;17.130;2023-04-06T00:19:40;100793.80;;;1.50
70533;BMP180;58088;51.186;17.130;2023-04-06T00:22:07;100795.00;;;1.50
70533;BMP180;58088;51.186;17.130;2023-04-06T00:24:33;100799.60;;;1.50
70533;BMP180;58088;51.186;17.130;2023-04-06T00:26:59;100794.00;;;1.50
70533;BMP180;58088;51.186;17.130;2023-04-06T00:29:25;100791.20;;;1.48
70533;BMP180;58088;51.186;17.130;2023-04-06T00:31:51;100789.40;;;1.50
70533;BMP180;58088;51.186;17.130;2023-04-06T00:34:18;100785.20;;;1.40
70533;BMP180;58088;51.186;17.130;2023-04-06T00:36:44;100782.00;;;1.40
70533;BMP180;58088;51.186;17.130;2023-04-06T00:39:10;100780.20;;;1.40
70533;BMP180;58088;51.186;17.130;2023-04-06T00:41:36;100783.60;;;1.40
70533;BMP180;58088;51.186;17.130;2023-04-06T00:44:02;100786.20;;;1.40
70533;BMP180;58088;51.186;17.130;2023-04-06T00:46:29;100784.80;;;1.40
70533;BMP180;58088;51.186;17.130;2023-04-06T00:48:56;100787.80;;;1.40
70533;BMP180;58088;51.186;17.130;2023-04-06T00:51:22;100783.80;;;1.40
70533;BMP180;58088;51.186;17.130;2023-04-06T00:53:49;100777.60;;;1.40
70533;BMP180;58088;51.186;17.130;2023-04-06T00:56:16;100778.20;;;1.40
70533;BMP180;58088;51.186;17.130;2023-04-06T00:58:50;100785.00;;;1.32
70533;BMP180;58088;51.186;17.130;2023-04-06T01:01:16;100784.60;;;1.30
70533;BMP180;58088;51.186;17.130;2023-04-06T01:03:43;100776.60;;;1.30
70533;BMP180;58088;51.186;17.130;2023-04-06T01:06:13;100778.00;;;1.30
70533;BMP180;58088;51.186;17.130;2023-04-06T01:08:40;100774.40;;;1.30
70533;BMP180;58088;51.186;17.130;2023-04-06T01:11:17;100775.60;;;1.30
70533;BMP180;58088;51.186;17.130;2023-04-06T01:13:44;100783.20;;;1.30
70533;BMP180;58088;51.186;17.130;2023-04-06T01:16:25;100778.80;;;1.28
70533;BMP180;58088;51.186;17.130;2023-04-06T01:19:17;100781.40;;;1.20
70533;BMP180;58088;51.186;17.130;2023-04-06T01:21:46;100779.40;;;1.20
70533;BMP180;58088;51.186;17.130;2023-04-06T01:24:24;100779.00;;;1.20
70533;BMP180;58088;51.186;17.130;2023-04-06T01:27:14;100779.20;;;1.20
70533;BMP180;58088;51.186;17.130;2023-04-06T01:29:47;100775.40;;;1.20
70533;BMP180;58088;51.186;17.130;2023-04-06T01:32:17;100775.00;;;1.20
70533;BMP180;58088;51.186;17.130;2023-04-06T01:34:47;100770.40;;;1.20
70533;BMP180;58088;51.186;17.130;2023-04-06T01:37:14;100779.60;;;1.20
70533;BMP180;58088;51.186;17.130;2023-04-06T01:39:42;100774.20;;;1.20
70533;BMP180;58088;51.186;17.130;2023-04-06T01:42:09;100775.80;;;1.20
70533;BMP180;58088;51.186;17.130;2023-04-06T01:44:37;100779.20;;;1.20
70533;BMP180;58088;51.186;17.130;2023-04-06T01:47:07;100775.00;;;1.20
70533;BMP180;58088;51.186;17.130;2023-04-06T01:49:33;100774.20;;;1.12
70533;BMP180;58088;51.186;17.130;2023-04-06T01:52:00;100768.00;;;1.14
70533;BMP180;58088;51.186;17.130;2023-04-06T01:54:26;100770.80;;;1.10
70533;BMP180;58088;51.186;17.130;2023-04-06T01:57:09;100774.80;;;1.10
70533;BMP180;58088;51.186;17.130;2023-04-06T02:00:02;100771.00;;;1.08
70533;BMP180;58088;51.186;17.130;2023-04-06T02:02:39;100777.80;;;1.10
70533;BMP180;58088;51.186;17.130;2023-04-06T02:05:08;100783.00;;;1.10
70533;BMP180;58088;51.186;17.130;2023-04-06T02:07:35;100771.00;;;1.08
70533;BMP180;58088;51.186;17.130;2023-04-06T02:10:03;100771.40;;;1.02
70533;BMP180;58088;51.186;17.130;2023-04-06T02:12:35;100774.20;;;1.02
70533;BMP180;58088;51.186;17.130;2023-04-06T02:15:02;100777.20;;;1.00
70533;BMP180;58088;51.186;17.130;2023-04-06T02:17:29;100768.40;;;1.00
70533;BMP180;58088;51.186;17.130;2023-04-06T02:19:56;100766.00;;;1.00
70533;BMP180;58088;51.186;17.130;2023-04-06T02:22:23;100764.40;;;1.00
70533;BMP180;58088;51.186;17.130;2023-04-06T02:24:49;100766.20;;;1.00
70533;BMP180;58088;51.186;17.130;2023-04-06T02:27:16;100768.20;;;0.96
70533;BMP180;58088;51.186;17.130;2023-04-06T02:29:45;100769.80;;;0.94
70533;BMP180;58088;51.186;17.130;2023-04-06T02:32:12;100774.80;;;0.90
70533;BMP180;58088;51.186;17.130;2023-04-06T02:34:38;100775.00;;;0.90
70533;BMP180;58088;51.186;17.130;2023-04-06T02:37:04;100772.60;;;0.90
70533;BMP180;58088;51.186;17.130;2023-04-06T02:39:30;100774.60;;;0.86
70533;BMP180;58088;51.186;17.130;2023-04-06T02:41:57;100776.20;;;0.88
70533;BMP180;58088;51.186;17.130;2023-04-06T02:44:24;100775.60;;;0.88
70533;BMP180;58088;51.186;17.130;2023-04-06T02:46:50;100778.20;;;0.84
70533;BMP180;58088;51.186;17.130;2023-04-06T02:49:17;100783.00;;;0.80
70533;BMP180;58088;51.186;17.130;2023-04-06T02:51:43;100782.80;;;0.80
70533;BMP180;58088;51.186;17.130;2023-04-06T02:54:17;100780.60;;;0.80
70533;BMP180;58088;51.186;17.130;2023-04-06T02:56:43;100777.40;;;0.80
70533;BMP180;58088;51.186;17.130;2023-04-06T02:59:10;100780.20;;;0.80
70533;BMP180;58088;51.186;17.130;2023-04-06T03:01:37;100788.20;;;0.80
70533;BMP180;58088;51.186;17.130;2023-04-06T03:04:04;100790.20;;;0.80
70533;BMP180;58088;51.186;17.130;2023-04-06T03:06:30;100791.60;;;0.80
70533;BMP180;58088;51.186;17.130;2023-04-06T03:09:02;100789.60;;;0.74
70533;BMP180;58088;51.186;17.130;2023-04-06T03:11:32;100797.00;;;0.70
70533;BMP180;58088;51.186;17.130;2023-04-06T03:13:58;100789.80;;;0.70
70533;BMP180;58088;51.186;17.130;2023-04-06T03:16:25;100788.20;;;0.70
70533;BMP180;58088;51.186;17.130;2023-04-06T03:18:52;100791.00;;;0.70
70533;BMP180;58088;51.186;17.130;2023-04-06T03:21:18;100788.00;;;0.64
70533;BMP180;58088;51.186;17.130;2023-04-06T03:23:50;100792.00;;;0.60
70533;BMP180;58088;51.186;17.130;2023-04-06T03:26:17;100786.60;;;0.60
70533;BMP180;58088;51.186;17.130;2023-04-06T03:28:44;100798.20;;;0.62
70533;BMP180;58088;51.186;17.130;2023-04-06T03:31:10;100795.60;;;0.62
70533;BMP180;58088;51.186;17.130;2023-04-06T03:33:52;100800.60;;;0.60
70533;BMP180;58088;51.186;17.130;2023-04-06T03:36:22;100801.60;;;0.60
70533;BMP180;58088;51.186;17.130;2023-04-06T03:38:48;100800.00;;;0.60
70533;BMP180;58088;51.186;17.130;2023-04-06T03:41:15;100803.20;;;0.60
70533;BMP180;58088;51.186;17.130;2023-04-06T03:43:46;100803.60;;;0.60
70533;BMP180;58088;51.186;17.130;2023-04-06T03:46:12;100802.60;;;0.60
70533;BMP180;58088;51.186;17.130;2023-04-06T03:48:38;100806.40;;;0.54
70533;BMP180;58088;51.186;17.130;2023-04-06T03:51:05;100801.40;;;0.50
70533;BMP180;58088;51.186;17.130;2023-04-06T03:53:32;100803.00;;;0.50
70533;BMP180;58088;51.186;17.130;2023-04-06T03:55:58;100807.40;;;0.50
70533;BMP180;58088;51.186;17.130;2023-04-06T03:58:24;100809.60;;;0.50
70533;BMP180;58088;51.186;17.130;2023-04-06T04:00:51;100810.40;;;0.48
70533;BMP180;58088;51.186;17.130;2023-04-06T04:03:18;100815.00;;;0.40
70533;BMP180;58088;51.186;17.130;2023-04-06T04:05:44;100822.60;;;0.40
70533;BMP180;58088;51.186;17.130;2023-04-06T04:08:11;100812.80;;;0.40
70533;BMP180;58088;51.186;17.130;2023-04-06T04:10:37;100814.00;;;0.40
70533;BMP180;58088;51.186;17.130;2023-04-06T04:13:04;100823.00;;;0.40
70533;BMP180;58088;51.186;17.130;2023-04-06T04:15:30;100821.20;;;0.40
70533;BMP180;58088;51.186;17.130;2023-04-06T04:17:57;100824.20;;;0.40
70533;BMP180;58088;51.186;17.130;2023-04-06T04:20:23;100821.60;;;0.40
70533;BMP180;58088;51.186;17.130;2023-04-06T04:22:50;100824.40;;;0.40
70533;BMP180;58088;51.186;17.130;2023-04-06T04:25:16;100827.00;;;0.40
70533;BMP180;58088;51.186;17.130;2023-04-06T04:27:47;100821.20;;;0.40
70533;BMP180;58088;51.186;17.130;2023-04-06T04:30:14;100821.00;;;0.40
70533;BMP180;58088;51.186;17.130;2023-04-06T04:32:41;100818.20;;;0.40
70533;BMP180;58088;51.186;17.130;2023-04-06T04:35:09;100818.40;;;0.40
70533;BMP180;58088;51.186;17.130;2023-04-06T04:37:41;100810.00;;;0.40
70533;BMP180;58088;51.186;17.130;2023-04-06T04:40:08;100815.60;;;0.50
70533;BMP180;58088;51.186;17.130;2023-04-06T04:42:44;100813.60;;;0.50
70533;BMP180;58088;51.186;17.130;2023-04-06T04:45:16;100818.80;;;0.50
70533;BMP180;58088;51.186;17.130;2023-04-06T04:47:42;100817.80;;;0.60
70533;BMP180;58088;51.186;17.130;2023-04-06T04:50:09;100820.80;;;0.60
70533;BMP180;58088;51.186;17.130;2023-04-06T04:52:37;100822.00;;;0.80
70533;BMP180;58088;51.186;17.130;2023-04-06T04:55:29;100819.60;;;1.10
70533;BMP180;58088;51.186;17.130;2023-04-06T04:57:58;100818.00;;;1.40
70533;BMP180;58088;51.186;17.130;2023-04-06T05:00:35;100819.40;;;1.78
70533;BMP180;58088;51.186;17.130;2023-04-06T05:03:03;100818.40;;;2.14
70533;BMP180;58088;51.186;17.130;2023-04-06T05:05:33;100821.80;;;2.56
70533;BMP180;58088;51.186;17.130;2023-04-06T05:08:01;100816.00;;;3.00
70533;BMP180;58088;51.186;17.130;2023-04-06T05:10:39;100813.80;;;3.48
70533;BMP180;58088;51.186;17.130;2023-04-06T05:13:05;100817.40;;;3.90
70533;BMP180;58088;51.186;17.130;2023-04-06T05:15:32;100813.00;;;4.10
70533;BMP180;58088;51.186;17.130;2023-04-06T05:18:07;100816.40;;;4.52
70533;BMP180;58088;51.186;17.130;2023-04-06T05:20:35;100819.40;;;4.96
70533;BMP180;58088;51.186;17.130;2023-04-06T05:23:02;100818.80;;;5.40
70533;BMP180;58088;51.186;17.130;2023-04-06T05:25:29;100823.00;;;5.88
70533;BMP180;58088;51.186;17.130;2023-04-06T05:27:58;100824.20;;;6.34
70533;BMP180;58088;51.186;17.130;2023-04-06T05:30:35;100826.80;;;6.76
70533;BMP180;58088;51.186;17.130;2023-04-06T05:33:02;100819.20;;;7.18
70533;BMP180;58088;51.186;17.130;2023-04-06T05:35:35;100825.60;;;7.50
70533;BMP180;58088;51.186;17.130;2023-04-06T05:38:08;100819.20;;;7.88
70533;BMP180;58088;51.186;17.130;2023-04-06T05:40:37;100828.00;;;8.20
70533;BMP180;58088;51.186;17.130;2023-04-06T05:43:08;100828.80;;;8.40
70533;BMP180;58088;51.186;17.130;2023-04-06T05:45:36;100824.00;;;8.60
70533;BMP180;58088;51.186;17.130;2023-04-06T05:48:04;100820.40;;;8.86
70533;BMP180;58088;51.186;17.130;2023-04-06T05:50:30;100820.20;;;9.10
70533;BMP180;58088;51.186;17.130;2023-04-06T05:52:56;100824.40;;;9.38
70533;BMP180;58088;51.186;17.130;2023-04-06T05:55:24;100812.40;;;9.70
70533;BMP180;58088;51.186;17.130;2023-04-06T05:57:57;100817.80;;;9.92
70533;BMP180;58088;51.186;17.130;2023-04-06T06:00:23;100814.40;;;10.12
70533;BMP180;58088;51.186;17.130;2023-04-06T06:02:54;100817.40;;;10.40
70533;BMP180;58088;51.186;17.130;2023-04-06T06:05:23;100816.20;;;10.60
70533;BMP180;58088;51.186;17.130;2023-04-06T06:07:50;100822.60;;;10.80
70533;BMP180;58088;51.186;17.130;2023-04-06T06:10:16;100816.60;;;11.10
70533;BMP180;58088;51.186;17.130;2023-04-06T06:12:42;100812.20;;;11.44
70533;BMP180;58088;51.186;17.130;2023-04-06T06:15:09;100820.80;;;11.64
70533;BMP180;58088;51.186;17.130;2023-04-06T06:17:38;100819.60;;;12.00
70533;BMP180;58088;51.186;17.130;2023-04-06T06:20:08;100823.80;;;12.20
70533;BMP180;58088;51.186;17.130;2023-04-06T06:22:35;100825.20;;;12.30
70533;BMP180;58088;51.186;17.130;2023-04-06T06:25:03;100822.40;;;12.40
70533;BMP180;58088;51.186;17.130;2023-04-06T06:27:29;100821.60;;;12.66
70533;BMP180;58088;51.186;17.130;2023-04-06T06:29:55;100822.60;;;12.70
70533;BMP180;58088;51.186;17.130;2023-04-06T06:32:22;100820.40;;;12.90
70533;BMP180;58088;51.186;17.130;2023-04-06T06:34:50;100819.60;;;12.90
70533;BMP180;58088;51.186;17.130;2023-04-06T06:37:17;100827.40;;;13.06
70533;BMP180;58088;51.186;17.130;2023-04-06T06:39:43;100827.60;;;13.30
70533;BMP180;58088;51.186;17.130;2023-04-06T06:42:09;100830.60;;;13.50
70533;BMP180;58088;51.186;17.130;2023-04-06T06:45:11;100825.20;;;13.70
70533;BMP180;58088;51.186;17.130;2023-04-06T06:47:37;100822.20;;;13.78
70533;BMP180;58088;51.186;17.130;2023-04-06T06:50:04;100826.20;;;13.90
70533;BMP180;58088;51.186;17.130;2023-04-06T06:52:31;100819.00;;;14.08
70533;BMP180;58088;51.186;17.130;2023-04-06T06:54:57;100820.00;;;14.20
70533;BMP180;58088;51.186;17.130;2023-04-06T06:57:23;100821.20;;;14.20
70533;BMP180;58088;51.186;17.130;2023-04-06T06:59:50;100825.20;;;14.20
70533;BMP180;58088;51.186;17.130;2023-04-06T07:02:17;100829.80;;;14.18
70533;BMP180;58088;51.186;17.130;2023-04-06T07:04:47;100827.20;;;13.92
70533;BMP180;58088;51.186;17.130;2023-04-06T07:07:14;100832.60;;;14.00
70533;BMP180;58088;51.186;17.130;2023-04-06T07:09:40;100829.60;;;13.90
70533;BMP180;58088;51.186;17.130;2023-04-06T07:12:06;100832.00;;;13.90
70533;BMP180;58088;51.186;17.130;2023-04-06T07:14:32;100830.00;;;13.82
70533;BMP180;58088;51.186;17.130;2023-04-06T07:16:59;100843.00;;;13.80
70533;BMP180;58088;51.186;17.130;2023-04-06T07:19:25;100847.40;;;13.50
70533;BMP180;58088;51.186;17.130;2023-04-06T07:21:51;100847.80;;;13.50
70533;BMP180;58088;51.186;17.130;2023-04-06T07:24:17;100849.80;;;13.40
70533;BMP180;58088;51.186;17.130;2023-04-06T07:26:43;100853.40;;;13.40
70533;BMP180;58088;51.186;17.130;2023-04-06T07:29:09;100852.60;;;13.20
70533;BMP180;58088;51.186;17.130;2023-04-06T07:31:36;100853.60;;;13.12
70533;BMP180;58088;51.186;17.130;2023-04-06T07:34:03;100845.80;;;12.96
70533;BMP180;58088;51.186;17.130;2023-04-06T07:36:29;100849.00;;;12.78
70533;BMP180;58088;51.186;17.130;2023-04-06T07:38:55;100843.80;;;12.50
70533;BMP180;58088;51.186;17.130;2023-04-06T07:41:22;100849.00;;;12.40
70533;BMP180;58088;51.186;17.130;2023-04-06T07:43:49;100854.20;;;12.40
70533;BMP180;58088;51.186;17.130;2023-04-06T07:46:16;100850.80;;;12.40
70533;BMP180;58088;51.186;17.130;2023-04-06T07:48:42;100854.00;;;11.98
70533;BMP180;58088;51.186;17.130;2023-04-06T07:51:08;100854.40;;;11.90
70533;BMP180;58088;51.186;17.130;2023-04-06T07:53:40;100851.00;;;12.10
70533;BMP180;58088;51.186;17.130;2023-04-06T07:56:06;100851.20;;;12.00
70533;BMP180;58088;51.186;17.130;2023-04-06T07:58:33;100848.20;;;11.92
70533;BMP180;58088;51.186;17.130;2023-04-06T08:00:59;100844.60;;;11.90
70533;BMP180;58088;51.186;17.130;2023-04-06T08:03:25;100846.40;;;11.80
70533;BMP180;58088;51.186;17.130;2023-04-06T08:05:52;100844.00;;;11.82
70533;BMP180;58088;51.186;17.130;2023-04-06T08:08:19;100846.80;;;11.90
70533;BMP180;58088;51.186;17.130;2023-04-06T08:10:50;100846.80;;;12.00
70533;BMP180;58088;51.186;17.130;2023-04-06T08:13:16;100847.60;;;12.10
70533;BMP180;58088;51.186;17.130;2023-04-06T08:15:43;100839.00;;;11.90
70533;BMP180;58088;51.186;17.130;2023-04-06T08:18:09;100842.20;;;12.10
70533;BMP180;58088;51.186;17.130;2023-04-06T08:20:36;100844.40;;;12.06
70533;BMP180;58088;51.186;17.130;2023-04-06T08:23:02;100845.00;;;11.90
70533;BMP180;58088;51.186;17.130;2023-04-06T08:25:29;100841.20;;;12.10
70533;BMP180;58088;51.186;17.130;2023-04-06T08:27:55;100846.00;;;12.10
70533;BMP180;58088;51.186;17.130;2023-04-06T08:30:21;100841.60;;;12.00
70533;BMP180;58088;51.186;17.130;2023-04-06T08:32:47;100850.00;;;12.00
70533;BMP180;58088;51.186;17.130;2023-04-06T08:35:14;100841.60;;;12.00
70533;BMP180;58088;51.186;17.130;2023-04-06T08:37:40;100851.00;;;11.76
70533;BMP180;58088;51.186;17.130;2023-04-06T08:40:07;100847.80;;;11.46
70533;BMP180;58088;51.186;17.130;2023-04-06T08:42:44;100846.40;;;11.30
70533;BMP180;58088;51.186;17.130;2023-04-06T08:45:15;100842.40;;;11.46
70533;BMP180;58088;51.186;17.130;2023-04-06T08:47:42;100841.40;;;11.30
70533;BMP180;58088;51.186;17.130;2023-04-06T08:50:10;100837.00;;;11.50
70533;BMP180;58088;51.186;17.130;2023-04-06T08:52:38;100842.80;;;11.80
70533;BMP180;58088;51.186;17.130;2023-04-06T08:55:06;100845.80;;;11.88
70533;BMP180;58088;51.186;17.130;2023-04-06T08:57:36;100853.20;;;11.80
70533;BMP180;58088;51.186;17.130;2023-04-06T09:00:02;100850.40;;;11.70
70533;BMP180;58088;51.186;17.130;2023-04-06T09:02:30;100857.60;;;11.60
70533;BMP180;58088;51.186;17.130;2023-04-06T09:04:57;100848.20;;;11.54
70533;BMP180;58088;51.186;17.130;2023-04-06T09:07:23;100847.20;;;11.50
70533;BMP180;58088;51.186;17.130;2023-04-06T09:09:49;100854.40;;;11.50
70533;BMP180;58088;51.186;17.130;2023-04-06T09:12:29;100844.40;;;11.40
70533;BMP180;58088;51.186;17.130;2023-04-06T09:14:57;100840.20;;;11.40
70533;BMP180;58088;51.186;17.130;2023-04-06T09:17:27;100841.00;;;11.40
70533;BMP180;58088;51.186;17.130;2023-04-06T09:19:54;100837.00;;;11.40
70533;BMP180;58088;51.186;17.130;2023-04-06T09:22:22;100834.00;;;11.30
70533;BMP180;58088;51.186;17.130;2023-04-06T09:24:54;100834.20;;;11.40
70533;BMP180;58088;51.186;17.130;2023-04-06T09:27:35;100829.20;;;11.40
70533;BMP180;58088;51.186;17.130;2023-04-06T09:30:07;100826.00;;;11.10
70533;BMP180;58088;51.186;17.130;2023-04-06T09:32:49;100818.60;;;11.10
70533;BMP180;58088;51.186;17.130;2023-04-06T09:35:17;100818.00;;;11.10
70533;BMP180;58088;51.186;17.130;2023-04-06T09:37:50;100822.00;;;11.20
70533;BMP180;58088;51.186;17.130;2023-04-06T09:40:18;100816.80;;;11.20
70533;BMP180;58088;51.186;17.130;2023-04-06T09:42:46;100818.40;;;11.40
70533;BMP180;58088;51.186;17.130;2023-04-06T09:45:13;100816.60;;;11.30
70533;BMP180;58088;51.186;17.130;2023-04-06T09:47:43;100818.40;;;11.30
70533;BMP180;58088;51.186;17.130;2023-04-06T09:50:13;100819.00;;;11.20
70533;BMP180;58088;51.186;17.130;2023-04-06T09:52:54;100811.60;;;11.08
70533;BMP180;58088;51.186;17.130;2023-04-06T09:55:40;100809.60;;;11.14
70533;BMP180;58088;51.186;17.130;2023-04-06T09:58:13;100811.80;;;11.20
70533;BMP180;58088;51.186;17.130;2023-04-06T10:01:00;100813.00;;;11.20
70533;BMP180;58088;51.186;17.130;2023-04-06T10:03:52;100808.60;;;11.20
70533;BMP180;58088;51.186;17.130;2023-04-06T10:06:23;100806.00;;;11.40
70533;BMP180;58088;51.186;17.130;2023-04-06T10:08:55;100808.40;;;11.30
70533;BMP180;58088;51.186;17.130;2023-04-06T10:11:22;100803.40;;;11.30
70533;BMP180;58088;51.186;17.130;2023-04-06T10:13:49;100803.40;;;11.30
70533;BMP180;58088;51.186;17.130;2023-04-06T10:16:16;100804.60;;;11.50
70533;BMP180;58088;51.186;17.130;2023-04-06T10:18:52;100807.60;;;11.50
70533;BMP180;58088;51.186;17.130;2023-04-06T10:21:24;100806.00;;;11.50
70533;BMP180;58088;51.186;17.130;2023-04-06T10:23:59;100804.00;;;11.66
70533;BMP180;58088;51.186;17.130;2023-04-06T10:26:25;100799.40;;;11.80
70533;BMP180;58088;51.186;17.130;2023-04-06T10:28:52;100798.80;;;11.80
70533;BMP180;58088;51.186;17.130;2023-04-06T10:31:26;100801.60;;;11.62
70533;BMP180;58088;51.186;17.130;2023-04-06T10:34:01;100801.40;;;11.50
70533;BMP180;58088;51.186;17.130;2023-04-06T10:36:32;100791.20;;;11.42
70533;BMP180;58088;51.186;17.130;2023-04-06T10:39:01;100793.20;;;11.54
70533;BMP180;58088;51.186;17.130;2023-04-06T10:41:55;100794.00;;;11.60
70533;BMP180;58088;51.186;17.130;2023-04-06T10:44:43;100786.60;;;11.50
70533;BMP180;58088;51.186;17.130;2023-04-06T10:47:17;100789.80;;;11.50
70533;BMP180;58088;51.186;17.130;2023-04-06T10:49:44;100784.60;;;11.56
70533;BMP180;58088;51.186;17.130;2023-04-06T10:52:10;100779.40;;;11.70
70533;BMP180;58088;51.186;17.130;2023-04-06T10:54:42;100780.80;;;11.62
70533;BMP180;58088;51.186;17.130;2023-04-06T10:57:10;100784.20;;;11.40
70533;BMP180;58088;51.186;17.130;2023-04-06T10:59:36;100783.00;;;11.30
70533;BMP180;58088;51.186;17.130;2023-04-06T11:02:02;100784.00;;;11.36
70533;BMP180;58088;51.186;17.130;2023-04-06T11:04:28;100781.00;;;11.20
70533;BMP180;58088;51.186;17.130;2023-04-06T11:06:55;100778.60;;;11.26
70533;BMP180;58088;51.186;17.130;2023-04-06T11:09:26;100769.60;;;11.40
70533;BMP180;58088;51.186;17.130;2023-04-06T11:11:54;100765.40;;;11.60
70533;BMP180;58088;51.186;17.130;2023-04-06T11:14:21;100761.40;;;11.80
70533;BMP180;58088;51.186;17.130;2023-04-06T11:16:48;100761.80;;;11.82
70533;BMP180;58088;51.186;17.130;2023-04-06T11:19:16;100763.20;;;11.90
70533;BMP180;58088;51.186;17.130;2023-04-06T11:21:46;100752.80;;;12.00
70533;BMP180;58088;51.186;17.130;2023-04-06T11:24:24;100749.80;;;12.20
70533;BMP180;58088;51.186;17.130;2023-04-06T11:26:57;100760.40;;;12.20
70533;BMP180;58088;51.186;17.130;2023-04-06T11:29:29;100756.60;;;12.20
70533;BMP180;58088;51.186;17.130;2023-04-06T11:32:06;100755.80;;;12.30
70533;BMP180;58088;51.186;17.130;2023-04-06T11:34:36;100744.20;;;12.30
70533;BMP180;58088;51.186;17.130;2023-04-06T11:37:11;100743.00;;;12.46
70533;BMP180;58088;51.186;17.130;2023-04-06T11:39:40;100747.20;;;12.40
70533;BMP180;58088;51.186;17.130;2023-04-06T11:42:08;100745.60;;;12.20
70533;BMP180;58088;51.186;17.130;2023-04-06T11:44:40;100743.20;;;12.00
70533;BMP180;58088;51.186;17.130;2023-04-06T11:47:11;100748.00;;;11.90
70533;BMP180;58088;51.186;17.130;2023-04-06T11:49:42;100742.60;;;11.90
70533;BMP180;58088;51.186;17.130;2023-04-06T11:52:18;100734.80;;;11.90
70533;BMP180;58088;51.186;17.130;2023-04-06T11:54:45;100736.40;;;11.92
70533;BMP180;58088;51.186;17.130;2023-04-06T11:57:11;100724.80;;;11.98
70533;BMP180;58088;51.186;17.130;2023-04-06T11:59:38;100727.40;;;11.96
70533;BMP180;58088;51.186;17.130;2023-04-06T12:02:04;100727.00;;;11.80
70533;BMP180;58088;51.186;17.130;2023-04-06T12:04:32;100715.60;;;11.90
70533;BMP180;58088;51.186;17.130;2023-04-06T12:06:58;100721.00;;;12.00
70533;BMP180;58088;51.186;17.130;2023-04-06T12:09:25;100717.60;;;12.10
70533;BMP180;58088;51.186;17.130;2023-04-06T12:11:51;100719.60;;;12.10
70533;BMP180;58088;51.186;17.130;2023-04-06T12:14:17;100721.80;;;12.00
70533;BMP180;58088;51.186;17.130;2023-04-06T12:16:43;100718.00;;;11.80
70533;BMP180;58088;51.186;17.130;2023-04-06T12:19:10;100708.40;;;11.86
70533;BMP180;58088;51.186;17.130;2023-04-06T12:21:36;100705.60;;;12.00
70533;BMP180;58088;51.186;17.130;2023-04-06T12:24:06;100704.20;;;11.96
70533;BMP180;58088;51.186;17.130;2023-04-06T12:26:33;100697.40;;;11.90
70533;BMP180;58088;51.186;17.130;2023-04-06T12:28:59;100695.60;;;11.92
70533;BMP180;58088;51.186;17.130;2023-04-06T12:31:43;100695.20;;;12.00
70533;BMP180;58088;51.186;17.130;2023-04-06T12:34:11;100683.40;;;12.00
70533;BMP180;58088;51.186;17.130;2023-04-06T12:36:38;100683.00;;;12.00
70533;BMP180;58088;51.186;17.130;2023-04-06T12:39:05;100682.40;;;12.00
70533;BMP180;58088;51.186;17.130;2023-04-06T12:41:32;100677.80;;;12.00
70533;BMP180;58088;51.186;17.130;2023-04-06T12:43:58;100672.20;;;12.00
70533;BMP180;58088;51.186;17.130;2023-04-06T12:46:28;100673.60;;;12.00
70533;BMP180;58088;51.186;17.130;2023-04-06T12:48:58;100675.80;;;12.00
70533;BMP180;58088;51.186;17.130;2023-04-06T12:51:28;100668.60;;;12.10
70533;BMP180;58088;51.186;17.130;2023-04-06T12:53:54;100670.80;;;11.90
70533;BMP180;58088;51.186;17.130;2023-04-06T12:56:21;100667.80;;;11.90
70533;BMP180;58088;51.186;17.130;2023-04-06T12:58:50;100666.00;;;12.00
70533;BMP180;58088;51.186;17.130;2023-04-06T13:01:17;100664.20;;;12.10
70533;BMP180;58088;51.186;17.130;2023-04-06T13:03:43;100666.80;;;12.00
70533;BMP180;58088;51.186;17.130;2023-04-06T13:06:10;100660.80;;;11.82
70533;BMP180;58088;51.186;17.130;2023-04-06T13:08:38;100653.20;;;11.80
70533;BMP180;58088;51.186;17.130;2023-04-06T13:11:05;100661.60;;;11.82
70533;BMP180;58088;51.186;17.130;2023-04-06T13:13:36;100654.80;;;11.90
70533;BMP180;58088;51.186;17.130;2023-04-06T13:16:07;100651.60;;;11.90
70533;BMP180;58088;51.186;17.130;2023-04-06T13:18:33;100649.20;;;11.90
70533;BMP180;58088;51.186;17.130;2023-04-06T13:21:00;100644.00;;;11.90
70533;BMP180;58088;51.186;17.130;2023-04-06T13:23:26;100645.20;;;12.00
70533;BMP180;58088;51.186;17.130;2023-04-06T13:26:05;100640.20;;;12.10
70533;BMP180;58088;51.186;17.130;2023-04-06T13:28:34;100641.80;;;11.92
70533;BMP180;58088;51.186;17.130;2023-04-06T13:31:02;100638.20;;;11.90
70533;BMP180;58088;51.186;17.130;2023-04-06T13:33:29;100627.00;;;11.90
70533;BMP180;58088;51.186;17.130;2023-04-06T13:35:57;100632.80;;;11.98
70533;BMP180;58088;51.186;17.130;2023-04-06T13:38:24;100635.80;;;11.92
70533;BMP180;58088;51.186;17.130;2023-04-06T13:40:51;100640.40;;;11.90
70533;BMP180;58088;51.186;17.130;2023-04-06T13:43:17;100634.00;;;11.80
70533;BMP180;58088;51.186;17.130;2023-04-06T13:45:52;100625.80;;;11.90
70533;BMP180;58088;51.186;17.130;2023-04-06T13:48:19;100624.00;;;11.80
70533;BMP180;58088;51.186;17.130;2023-04-06T13:50:46;100630.60;;;11.62
70533;BMP180;58088;51.186;17.130;2023-04-06T13:53:12;100629.60;;;11.60
70533;BMP180;58088;51.186;17.130;2023-04-06T13:55:39;100628.60;;;11.50
70533;BMP180;58088;51.186;17.130;2023-04-06T13:58:05;100631.80;;;11.40